sensor_id;sensor_type;location;lat;lon;timestamp;temperature;humidity
6110;DHT22;3085;49.444;11.054;2023-11-22T00:01:52;5.50;99.90
6110;DHT22;3085;49.444;11.054;2023-11-22T00:04:19;5.40;99.90
6110;DHT22;3085;49.444;11.054;2023-11-22T00:06:45;5.60;99.90
6110;DHT22;3085;49.444;11.054;2023-11-22T00:09:12;5.50;99.90
6110;DHT22;3085;49.444;11.054;2023-11-22T00:11:41;5.50;99.90
6110;DHT22;3085;49.444;11.054;2023-11-22T00:14:08;5.50;99.90
6110;DHT22;3085;49.444;11.054;2023-11-22T00:16:35;5.30;99.90
6110;DHT22;3085;49.444;11.054;2023-11-22T00:19:05;5.30;99.90
6110;DHT22;3085;49.444;11.054;2023-11-22T00:21:32;5.40;99.90
6110;DHT22;3085;49.444;11.054;2023-11-22T00:24:01;5.50;99.90
6110;DHT22;3085;49.444;11.054;2023-11-22T00:26:30;5.40;99.90
6110;DHT22;3085;49.444;11.054;2023-11-22T00:28:59;5.20;99.90
6110;DHT22;3085;49.444;11.054;2023-11-22T00:31:28;5.10;99.90
6110;DHT22;3085;49.444;11.054;2023-11-22T00:33:55;5.10;99.90
6110;DHT22;3085;49.444;11.054;2023-11-22T00:36:21;5.00;99.90
6110;DHT22;3085;49.444;11.054;2023-11-22T00:38:48;5.00;99.90
6110;DHT22;3085;49.444;11.054;2023-11-22T00:41:15;5.00;99.90
6110;DHT22;3085;49.444;11.054;2023-11-22T00:43:46;4.90;99.90
6110;DHT22;3085;49.444;11.054;2023-11-22T00:46:14;5.10;99.90
6110;DHT22;3085;49.444;11.054;2023-11-22T00:48:41;5.00;99.90
6110;DHT22;3085;49.444;11.054;2023-11-22T00:51:08;5.00;99.90
6110;DHT22;3085;49.444;11.054;2023-11-22T00:53:36;5.10;99.90
6110;DHT22;3085;49.444;11.054;2023-11-22T00:56:05;5.20;99.90
6110;DHT22;3085;49.444;11.054;2023-11-22T00:58:32;4.80;99.90
6110;DHT22;3085;49.444;11.054;2023-11-22T01:00:59;4.70;99.90
6110;DHT22;3085;49.444;11.054;2023-11-22T01:03:27;4.50;99.90
6110;DHT22;3085;49.444;11.054;2023-11-22T01:05:57;4.50;99.90
6110;DHT22;3085;49.444;11.054;2023-11-22T01:08:24;4.60;99.90
6110;DHT22;3085;49.444;11.054;2023-11-22T01:10:51;4.60;99.90
6110;DHT22;3085;49.444;11.054;2023-11-22T01:13:20;4.60;99.90
6110;DHT22;3085;49.444;11.054;2023-11-22T01:15:47;4.50;99.90
6110;DHT22;3085;49.444;11.054;2023-11-22T01:18:14;4.50;99.90
6110;DHT22;3085;49.444;11.054;2023-11-22T01:20:42;4.40;99.90
6110;DHT22;3085;49.444;11.054;2023-11-22T01:23:10;4.50;99.90
6110;DHT22;3085;49.444;11.054;2023-11-22T01:25:37;4.50;99.90
6110;DHT22;3085;49.444;11.054;2023-11-22T01:28:04;5.40;99.90
6110;DHT22;3085;49.444;11.054;2023-11-22T01:30:32;4.50;99.90
6110;DHT22;3085;49.444;11.054;2023-11-22T01:32:59;4.30;99.90
6110;DHT22;3085;49.444;11.054;2023-11-22T01:35:26;4.40;99.90
6110;DHT22;3085;49.444;11.054;2023-11-22T01:37:55;4.40;99.90
6110;DHT22;3085;49.444;11.054;2023-11-22T01:40:23;4.50;99.90
6110;DHT22;3085;49.444;11.054;2023-11-22T01:42:53;4.50;99.90
6110;DHT22;3085;49.444;11.054;2023-11-22T01:45:21;4.40;99.90
6110;DHT22;3085;49.444;11.054;2023-11-22T01:47:48;4.50;99.90
6110;DHT22;3085;49.444;11.054;2023-11-22T01:50:15;4.40;99.90
6110;DHT22;3085;49.444;11.054;2023-11-22T01:52:42;4.40;99.90
6110;DHT22;3085;49.444;11.054;2023-11-22T01:55:14;4.30;99.90
6110;DHT22;3085;49.444;11.054;2023-11-22T01:57:44;4.30;99.90
6110;DHT22;3085;49.444;11.054;2023-11-22T02:00:12;4.30;99.90
6110;DHT22;3085;49.444;11.054;2023-11-22T02:02:40;4.20;99.90
6110;DHT22;3085;49.444;11.054;2023-11-22T02:05:10;4.30;99.90
6110;DHT22;3085;49.444;11.054;2023-11-22T02:07:38;4.30;99.90
6110;DHT22;3085;49.444;11.054;2023-11-22T02:10:07;4.20;99.90
6110;DHT22;3085;49.444;11.054;2023-11-22T02:12:35;4.20;99.90
6110;DHT22;3085;49.444;11.054;2023-11-22T02:15:03;4.20;99.90
6110;DHT22;3085;49.444;11.054;2023-11-22T02:17:30;4.20;99.90
6110;DHT22;3085;49.444;11.054;2023-11-22T02:19:59;4.30;99.90
6110;DHT22;3085;49.444;11.054;2023-11-22T02:22:31;4.20;99.90
6110;DHT22;3085;49.444;11.054;2023-11-22T02:24:59;3.80;99.90
6110;DHT22;3085;49.444;11.054;2023-11-22T02:27:26;4.10;99.90
6110;DHT22;3085;49.444;11.054;2023-11-22T02:29:56;4.10;99.90
6110;DHT22;3085;49.444;11.054;2023-11-22T02:32:22;4.10;99.90
6110;DHT22;3085;49.444;11.054;2023-11-22T02:34:49;4.60;99.90
6110;DHT22;3085;49.444;11.054;2023-11-22T02:37:16;4.70;99.90
6110;DHT22;3085;49.444;11.054;2023-11-22T02:39:51;4.30;99.90
6110;DHT22;3085;49.444;11.054;2023-11-22T02:42:25;4.00;99.90
6110;DHT22;3085;49.444;11.054;2023-11-22T02:44:52;4.00;99.90
6110;DHT22;3085;49.444;11.054;2023-11-22T02:47:19;4.90;99.90
6110;DHT22;3085;49.444;11.054;2023-11-22T02:49:45;4.20;99.90
6110;DHT22;3085;49.444;11.054;2023-11-22T02:52:12;4.10;99.90
6110;DHT22;3085;49.444;11.054;2023-11-22T02:54:42;4.10;99.90
6110;DHT22;3085;49.444;11.054;2023-11-22T02:57:09;4.00;99.90
6110;DHT22;3085;49.444;11.054;2023-11-22T02:59:37;4.00;99.90
6110;DHT22;3085;49.444;11.054;2023-11-22T03:02:07;3.90;99.90
6110;DHT22;3085;49.444;11.054;2023-11-22T03:04:34;3.90;99.90
6110;DHT22;3085;49.444;11.054;2023-11-22T03:07:01;4.80;99.90
6110;DHT22;3085;49.444;11.054;2023-11-22T03:09:28;4.50;99.90
6110;DHT22;3085;49.444;11.054;2023-11-22T03:11:55;3.70;99.90
6110;DHT22;3085;49.444;11.054;2023-11-22T03:14:22;3.70;99.90
6110;DHT22;3085;49.444;11.054;2023-11-22T03:16:50;3.60;99.90
6110;DHT22;3085;49.444;11.054;2023-11-22T03:19:17;3.80;99.90
6110;DHT22;3085;49.444;11.054;2023-11-22T03:21:45;3.60;99.90
6110;DHT22;3085;49.444;11.054;2023-11-22T03:24:11;4.30;99.90
6110;DHT22;3085;49.444;11.054;2023-11-22T03:26:41;4.90;99.90
6110;DHT22;3085;49.444;11.054;2023-11-22T03:29:08;3.70;99.90
6110;DHT22;3085;49.444;11.054;2023-11-22T03:31:38;4.50;99.90
6110;DHT22;3085;49.444;11.054;2023-11-22T03:34:06;3.70;99.90
6110;DHT22;3085;49.444;11.054;2023-11-22T03:36:33;3.70;99.90
6110;DHT22;3085;49.444;11.054;2023-11-22T03:39:00;3.80;99.90
6110;DHT22;3085;49.444;11.054;2023-11-22T03:41:28;3.80;99.90
6110;DHT22;3085;49.444;11.054;2023-11-22T03:43:55;3.70;99.90
6110;DHT22;3085;49.444;11.054;2023-11-22T03:46:24;3.70;99.90
6110;DHT22;3085;49.444;11.054;2023-11-22T03:48:52;4.90;99.90
6110;DHT22;3085;49.444;11.054;2023-11-22T03:51:20;3.80;99.90
6110;DHT22;3085;49.444;11.054;2023-11-22T03:53:50;4.60;99.90
6110;DHT22;3085;49.444;11.054;2023-11-22T03:56:17;3.80;99.90
6110;DHT22;3085;49.444;11.054;2023-11-22T03:58:44;3.60;99.90
6110;DHT22;3085;49.444;11.054;2023-11-22T04:01:11;3.70;99.90
6110;DHT22;3085;49.444;11.054;2023-11-22T04:03:38;3.60;99.90
6110;DHT22;3085;49.444;11.054;2023-11-22T04:06:07;3.70;99.90
6110;DHT22;3085;49.444;11.054;2023-11-22T04:08:35;3.70;99.90
6110;DHT22;3085;49.444;11.054;2023-11-22T04:11:04;3.70;99.90
6110;DHT22;3085;49.444;11.054;2023-11-22T04:13:31;3.70;99.90
6110;DHT22;3085;49.444;11.054;2023-11-22T04:15:57;3.80;99.90
6110;DHT22;3085;49.444;11.054;2023-11-22T04:18:27;3.90;99.90
6110;DHT22;3085;49.444;11.054;2023-11-22T04:20:54;3.80;99.90
6110;DHT22;3085;49.444;11.054;2023-11-22T04:23:23;3.70;99.90
6110;DHT22;3085;49.444;11.054;2023-11-22T04:25:53;3.70;99.90
6110;DHT22;3085;49.444;11.054;2023-11-22T04:28:20;3.80;99.90
6110;DHT22;3085;49.444;11.054;2023-11-22T04:30:46;3.90;99.90
6110;DHT22;3085;49.444;11.054;2023-11-22T04:33:13;3.80;99.90
6110;DHT22;3085;49.444;11.054;2023-11-22T04:35:40;3.90;99.90
6110;DHT22;3085;49.444;11.054;2023-11-22T04:38:11;3.90;99.90
6110;DHT22;3085;49.444;11.054;2023-11-22T04:40:38;3.90;99.90
6110;DHT22;3085;49.444;11.054;2023-11-22T04:43:06;5.00;99.90
6110;DHT22;3085;49.444;11.054;2023-11-22T04:45:36;4.80;99.90
6110;DHT22;3085;49.444;11.054;2023-11-22T04:48:04;3.80;99.90
6110;DHT22;3085;49.444;11.054;2023-11-22T04:50:32;3.90;99.90
6110;DHT22;3085;49.444;11.054;2023-11-22T04:52:59;3.80;99.90
6110;DHT22;3085;49.444;11.054;2023-11-22T04:55:27;3.80;99.90
6110;DHT22;3085;49.444;11.054;2023-11-22T04:57:56;4.40;99.90
6110;DHT22;3085;49.444;11.054;2023-11-22T05:00:24;3.80;99.90
6110;DHT22;3085;49.444;11.054;2023-11-22T05:02:51;4.60;99.90
6110;DHT22;3085;49.444;11.054;2023-11-22T05:05:19;4.10;99.90
6110;DHT22;3085;49.444;11.054;2023-11-22T05:07:49;3.50;99.90
6110;DHT22;3085;49.444;11.054;2023-11-22T05:10:18;3.50;99.90
6110;DHT22;3085;49.444;11.054;2023-11-22T05:12:45;4.10;99.90
6110;DHT22;3085;49.444;11.054;2023-11-22T05:15:15;3.50;99.90
6110;DHT22;3085;49.444;11.054;2023-11-22T05:17:43;3.60;99.90
6110;DHT22;3085;49.444;11.054;2023-11-22T05:20:11;3.60;99.90
6110;DHT22;3085;49.444;11.054;2023-11-22T05:22:44;3.60;99.90
6110;DHT22;3085;49.444;11.054;2023-11-22T05:25:13;4.30;99.90
6110;DHT22;3085;49.444;11.054;2023-11-22T05:27:42;4.30;99.90
6110;DHT22;3085;49.444;11.054;2023-11-22T05:30:10;3.90;99.90
6110;DHT22;3085;49.444;11.054;2023-11-22T05:32:37;3.70;99.90
6110;DHT22;3085;49.444;11.054;2023-11-22T05:35:06;4.20;99.90
6110;DHT22;3085;49.444;11.054;2023-11-22T05:37:35;3.60;99.90
6110;DHT22;3085;49.444;11.054;2023-11-22T05:40:04;3.60;99.90
6110;DHT22;3085;49.444;11.054;2023-11-22T05:42:31;3.70;99.90
6110;DHT22;3085;49.444;11.054;2023-11-22T05:44:58;3.50;99.90
6110;DHT22;3085;49.444;11.054;2023-11-22T05:47:24;3.30;99.90
6110;DHT22;3085;49.444;11.054;2023-11-22T05:49:52;3.60;99.90
6110;DHT22;3085;49.444;11.054;2023-11-22T05:52:20;3.70;99.90
6110;DHT22;3085;49.444;11.054;2023-11-22T05:54:48;3.70;99.90
6110;DHT22;3085;49.444;11.054;2023-11-22T05:57:15;3.80;99.90
6110;DHT22;3085;49.444;11.054;2023-11-22T05:59:45;3.80;99.90
6110;DHT22;3085;49.444;11.054;2023-11-22T06:02:12;3.80;99.90
6110;DHT22;3085;49.444;11.054;2023-11-22T06:04:39;3.80;99.90
6110;DHT22;3085;49.444;11.054;2023-11-22T06:07:06;4.00;99.90
6110;DHT22;3085;49.444;11.054;2023-11-22T06:09:36;3.70;99.90
6110;DHT22;3085;49.444;11.054;2023-11-22T06:12:04;3.70;99.90
6110;DHT22;3085;49.444;11.054;2023-11-22T06:14:31;3.80;99.90
6110;DHT22;3085;49.444;11.054;2023-11-22T06:16:58;4.40;99.90
6110;DHT22;3085;49.444;11.054;2023-11-22T06:19:25;3.60;99.90
6110;DHT22;3085;49.444;11.054;2023-11-22T06:21:53;3.70;99.90
6110;DHT22;3085;49.444;11.054;2023-11-22T06:24:19;3.60;99.90
6110;DHT22;3085;49.444;11.054;2023-11-22T06:26:48;3.70;99.90
6110;DHT22;3085;49.444;11.054;2023-11-22T06:29:15;3.70;99.90
6110;DHT22;3085;49.444;11.054;2023-11-22T06:31:43;3.60;99.90
6110;DHT22;3085;49.444;11.054;2023-11-22T06:34:10;3.60;99.90
6110;DHT22;3085;49.444;11.054;2023-11-22T06:36:37;3.50;99.90
6110;DHT22;3085;49.444;11.054;2023-11-22T06:39:05;3.50;99.90
6110;DHT22;3085;49.444;11.054;2023-11-22T06:41:34;3.40;99.90
6110;DHT22;3085;49.444;11.054;2023-11-22T06:44:03;4.50;99.90
6110;DHT22;3085;49.444;11.054;2023-11-22T06:46:29;3.20;99.90
6110;DHT22;3085;49.444;11.054;2023-11-22T06:48:56;3.20;99.90
6110;DHT22;3085;49.444;11.054;2023-11-22T06:51:24;3.10;99.90
6110;DHT22;3085;49.444;11.054;2023-11-22T06:53:54;3.20;99.90
6110;DHT22;3085;49.444;11.054;2023-11-22T06:56:24;3.30;99.90
6110;DHT22;3085;49.444;11.054;2023-11-22T06:58:54;3.20;99.90
6110;DHT22;3085;49.444;11.054;2023-11-22T07:01:30;3.40;99.90
6110;DHT22;3085;49.444;11.054;2023-11-22T07:04:06;3.40;99.90
6110;DHT22;3085;49.444;11.054;2023-11-22T07:06:33;3.30;99.90
6110;DHT22;3085;49.444;11.054;2023-11-22T07:09:01;3.50;99.90
6110;DHT22;3085;49.444;11.054;2023-11-22T07:11:30;3.50;99.90
6110;DHT22;3085;49.444;11.054;2023-11-22T07:13:58;3.30;99.90
6110;DHT22;3085;49.444;11.054;2023-11-22T07:16:26;3.40;99.90
6110;DHT22;3085;49.444;11.054;2023-11-22T07:18:53;3.40;99.90
6110;DHT22;3085;49.444;11.054;2023-11-22T07:21:21;3.40;99.90
6110;DHT22;3085;49.444;11.054;2023-11-22T07:23:48;3.40;99.90
6110;DHT22;3085;49.444;11.054;2023-11-22T07:26:15;3.70;99.90
6110;DHT22;3085;49.444;11.054;2023-11-22T07:28:42;3.20;99.90
6110;DHT22;3085;49.444;11.054;2023-11-22T07:31:09;3.30;99.90
6110;DHT22;3085;49.444;11.054;2023-11-22T07:33:38;3.30;99.90
6110;DHT22;3085;49.444;11.054;2023-11-22T07:36:06;3.50;99.90
6110;DHT22;3085;49.444;11.054;2023-11-22T07:38:33;3.40;99.90
6110;DHT22;3085;49.444;11.054;2023-11-22T07:41:02;3.30;99.90
6110;DHT22;3085;49.444;11.054;2023-11-22T07:43:33;3.40;99.90
6110;DHT22;3085;49.444;11.054;2023-11-22T07:46:00;3.70;99.90
6110;DHT22;3085;49.444;11.054;2023-11-22T07:48:27;3.50;99.90
6110;DHT22;3085;49.444;11.054;2023-11-22T07:50:55;3.40;99.90
6110;DHT22;3085;49.444;11.054;2023-11-22T07:53:22;4.50;99.90
6110;DHT22;3085;49.444;11.054;2023-11-22T07:55:54;3.30;99.90
6110;DHT22;3085;49.444;11.054;2023-11-22T07:58:22;4.30;99.90
6110;DHT22;3085;49.444;11.054;2023-11-22T08:00:52;3.80;99.90
6110;DHT22;3085;49.444;11.054;2023-11-22T08:03:24;3.20;99.90
6110;DHT22;3085;49.444;11.054;2023-11-22T08:05:55;3.40;99.90
6110;DHT22;3085;49.444;11.054;2023-11-22T08:08:22;3.00;99.90
6110;DHT22;3085;49.444;11.054;2023-11-22T08:10:52;3.10;99.90
6110;DHT22;3085;49.444;11.054;2023-11-22T08:13:19;2.90;99.90
6110;DHT22;3085;49.444;11.054;2023-11-22T08:15:48;3.00;99.90
6110;DHT22;3085;49.444;11.054;2023-11-22T08:18:18;3.10;99.90
6110;DHT22;3085;49.444;11.054;2023-11-22T08:20:47;3.00;99.90
6110;DHT22;3085;49.444;11.054;2023-11-22T08:23:16;3.10;99.90
6110;DHT22;3085;49.444;11.054;2023-11-22T08:25:43;3.40;99.90
6110;DHT22;3085;49.444;11.054;2023-11-22T08:28:11;3.00;99.90
6110;DHT22;3085;49.444;11.054;2023-11-22T08:30:38;3.00;99.90
6110;DHT22;3085;49.444;11.054;2023-11-22T08:33:06;2.90;99.90
6110;DHT22;3085;49.444;11.054;2023-11-22T08:35:33;2.90;99.90
6110;DHT22;3085;49.444;11.054;2023-11-22T08:38:00;3.00;99.90
6110;DHT22;3085;49.444;11.054;2023-11-22T08:40:30;2.80;99.90
6110;DHT22;3085;49.444;11.054;2023-11-22T08:42:56;3.00;99.90
6110;DHT22;3085;49.444;11.054;2023-11-22T08:45:23;3.20;99.90
6110;DHT22;3085;49.444;11.054;2023-11-22T08:47:50;2.70;99.90
6110;DHT22;3085;49.444;11.054;2023-11-22T08:50:17;3.10;99.90
6110;DHT22;3085;49.444;11.054;2023-11-22T08:52:45;3.30;99.90
6110;DHT22;3085;49.444;11.054;2023-11-22T08:55:12;3.10;99.90
6110;DHT22;3085;49.444;11.054;2023-11-22T08:57:41;3.20;99.90
6110;DHT22;3085;49.444;11.054;2023-11-22T09:00:08;3.00;99.90
6110;DHT22;3085;49.444;11.054;2023-11-22T09:02:37;3.10;99.90
6110;DHT22;3085;49.444;11.054;2023-11-22T09:05:05;3.00;99.90
6110;DHT22;3085;49.444;11.054;2023-11-22T09:07:33;3.10;99.90
6110;DHT22;3085;49.444;11.054;2023-11-22T09:10:01;3.00;99.90
6110;DHT22;3085;49.444;11.054;2023-11-22T09:12:35;3.00;99.90
6110;DHT22;3085;49.444;11.054;2023-11-22T09:15:05;3.10;99.90
6110;DHT22;3085;49.444;11.054;2023-11-22T09:17:34;3.20;99.90
6110;DHT22;3085;49.444;11.054;2023-11-22T09:20:01;3.00;99.90
6110;DHT22;3085;49.444;11.054;2023-11-22T09:22:31;3.40;99.90
6110;DHT22;3085;49.444;11.054;2023-11-22T09:24:58;2.90;99.90
6110;DHT22;3085;49.444;11.054;2023-11-22T09:27:25;3.00;99.90
6110;DHT22;3085;49.444;11.054;2023-11-22T09:29:52;2.90;99.90
6110;DHT22;3085;49.444;11.054;2023-11-22T09:32:21;3.10;99.90
6110;DHT22;3085;49.444;11.054;2023-11-22T09:34:49;3.00;99.90
6110;DHT22;3085;49.444;11.054;2023-11-22T09:37:15;3.00;99.90
6110;DHT22;3085;49.444;11.054;2023-11-22T09:39:42;3.00;99.90
6110;DHT22;3085;49.444;11.054;2023-11-22T09:42:10;3.10;99.90
6110;DHT22;3085;49.444;11.054;2023-11-22T09:44:38;3.10;99.90
6110;DHT22;3085;49.444;11.054;2023-11-22T09:47:06;3.30;99.90
6110;DHT22;3085;49.444;11.054;2023-11-22T09:49:34;3.40;99.90
6110;DHT22;3085;49.444;11.054;2023-11-22T09:52:02;3.40;99.90
6110;DHT22;3085;49.444;11.054;2023-11-22T09:54:31;3.30;99.90
6110;DHT22;3085;49.444;11.054;2023-11-22T09:57:00;3.20;99.90
6110;DHT22;3085;49.444;11.054;2023-11-22T09:59:29;3.10;99.90
6110;DHT22;3085;49.444;11.054;2023-11-22T10:01:57;3.00;99.90
6110;DHT22;3085;49.444;11.054;2023-11-22T10:04:25;3.10;99.90
6110;DHT22;3085;49.444;11.054;2023-11-22T10:06:57;3.00;99.90
6110;DHT22;3085;49.444;11.054;2023-11-22T10:09:25;2.90;99.90
6110;DHT22;3085;49.444;11.054;2023-11-22T10:11:56;3.00;99.90
6110;DHT22;3085;49.444;11.054;2023-11-22T10:14:23;3.00;99.90
6110;DHT22;3085;49.444;11.054;2023-11-22T10:16:58;3.00;99.90
6110;DHT22;3085;49.444;11.054;2023-11-22T10:19:29;3.00;99.90
6110;DHT22;3085;49.444;11.054;2023-11-22T10:22:04;3.00;99.90
6110;DHT22;3085;49.444;11.054;2023-11-22T10:24:32;3.00;99.90
6110;DHT22;3085;49.444;11.054;2023-11-22T10:27:00;3.00;99.90
6110;DHT22;3085;49.444;11.054;2023-11-22T10:29:27;2.90;99.90
6110;DHT22;3085;49.444;11.054;2023-11-22T10:31:54;3.00;99.90
6110;DHT22;3085;49.444;11.054;2023-11-22T10:34:21;2.90;99.90
6110;DHT22;3085;49.444;11.054;2023-11-22T10:36:48;2.80;99.90
6110;DHT22;3085;49.444;11.054;2023-11-22T10:39:20;3.00;99.90
6110;DHT22;3085;49.444;11.054;2023-11-22T10:41:47;3.10;99.90
6110;DHT22;3085;49.444;11.054;2023-11-22T10:44:16;3.20;99.90
6110;DHT22;3085;49.444;11.054;2023-11-22T10:46:43;3.20;99.90
6110;DHT22;3085;49.444;11.054;2023-11-22T10:49:11;3.30;99.90
6110;DHT22;3085;49.444;11.054;2023-11-22T10:51:40;3.30;99.90
6110;DHT22;3085;49.444;11.054;2023-11-22T10:54:06;4.00;99.90
6110;DHT22;3085;49.444;11.054;2023-11-22T10:56:38;3.20;99.90
6110;DHT22;3085;49.444;11.054;2023-11-22T10:59:10;3.40;99.90
6110;DHT22;3085;49.444;11.054;2023-11-22T11:01:43;3.50;99.90
6110;DHT22;3085;49.444;11.054;2023-11-22T11:04:23;3.50;99.90
6110;DHT22;3085;49.444;11.054;2023-11-22T11:06:53;3.60;99.90
6110;DHT22;3085;49.444;11.054;2023-11-22T11:09:25;3.70;99.90
6110;DHT22;3085;49.444;11.054;2023-11-22T11:11:59;4.40;99.90
6110;DHT22;3085;49.444;11.054;2023-11-22T11:14:29;4.70;99.90
6110;DHT22;3085;49.444;11.054;2023-11-22T11:16:56;4.10;99.90
6110;DHT22;3085;49.444;11.054;2023-11-22T11:19:24;3.30;99.90
6110;DHT22;3085;49.444;11.054;2023-11-22T11:21:51;3.40;99.90
6110;DHT22;3085;49.444;11.054;2023-11-22T11:24:18;3.50;99.90
6110;DHT22;3085;49.444;11.054;2023-11-22T11:26:47;3.70;99.90
6110;DHT22;3085;49.444;11.054;2023-11-22T11:29:31;3.70;99.90
6110;DHT22;3085;49.444;11.054;2023-11-22T11:31:58;3.70;99.90
6110;DHT22;3085;49.444;11.054;2023-11-22T11:34:25;3.60;99.90
6110;DHT22;3085;49.444;11.054;2023-11-22T11:36:52;3.60;99.90
6110;DHT22;3085;49.444;11.054;2023-11-22T11:39:25;2.80;99.90
6110;DHT22;3085;49.444;11.054;2023-11-22T11:42:07;3.70;99.90
6110;DHT22;3085;49.444;11.054;2023-11-22T11:44:35;3.60;99.90
6110;DHT22;3085;49.444;11.054;2023-11-22T11:47:09;3.80;99.90
6110;DHT22;3085;49.444;11.054;2023-11-22T11:49:37;3.70;99.90
6110;DHT22;3085;49.444;11.054;2023-11-22T11:52:04;3.70;99.90
6110;DHT22;3085;49.444;11.054;2023-11-22T11:54:31;3.80;99.90
6110;DHT22;3085;49.444;11.054;2023-11-22T11:56:59;3.70;99.90
6110;DHT22;3085;49.444;11.054;2023-11-22T11:59:26;3.80;99.90
6110;DHT22;3085;49.444;11.054;2023-11-22T12:01:55;3.80;99.90
6110;DHT22;3085;49.444;11.054;2023-11-22T12:04:23;4.00;99.90
6110;DHT22;3085;49.444;11.054;2023-11-22T12:06:50;4.10;99.90
6110;DHT22;3085;49.444;11.054;2023-11-22T12:09:22;4.10;99.90
6110;DHT22;3085;49.444;11.054;2023-11-22T12:11:50;4.10;99.90
6110;DHT22;3085;49.444;11.054;2023-11-22T12:14:18;3.90;99.90
6110;DHT22;3085;49.444;11.054;2023-11-22T12:16:57;3.90;99.90
6110;DHT22;3085;49.444;11.054;2023-11-22T12:19:38;3.80;99.90
6110;DHT22;3085;49.444;11.054;2023-11-22T12:22:05;3.80;99.90
6110;DHT22;3085;49.444;11.054;2023-11-22T12:24:33;3.60;99.90
6110;DHT22;3085;49.444;11.054;2023-11-22T12:27:00;3.80;99.90
6110;DHT22;3085;49.444;11.054;2023-11-22T12:29:27;3.60;99.90
6110;DHT22;3085;49.444;11.054;2023-11-22T12:31:55;3.60;99.90
6110;DHT22;3085;49.444;11.054;2023-11-22T12:34:23;3.60;99.90
6110;DHT22;3085;49.444;11.054;2023-11-22T12:36:53;3.70;99.90
6110;DHT22;3085;49.444;11.054;2023-11-22T12:39:20;3.60;99.90
6110;DHT22;3085;49.444;11.054;2023-11-22T12:41:50;3.80;99.90
6110;DHT22;3085;49.444;11.054;2023-11-22T12:44:17;3.80;99.90
6110;DHT22;3085;49.444;11.054;2023-11-22T12:46:49;3.70;99.90
6110;DHT22;3085;49.444;11.054;2023-11-22T12:49:22;3.60;99.90
6110;DHT22;3085;49.444;11.054;2023-11-22T12:51:50;3.50;99.90
6110;DHT22;3085;49.444;11.054;2023-11-22T12:54:17;3.60;99.90
6110;DHT22;3085;49.444;11.054;2023-11-22T12:56:47;3.40;99.90
6110;DHT22;3085;49.444;11.054;2023-11-22T12:59:16;3.30;99.90
6110;DHT22;3085;49.444;11.054;2023-11-22T13:01:43;4.10;99.90
6110;DHT22;3085;49.444;11.054;2023-11-22T13:04:10;3.30;99.90
6110;DHT22;3085;49.444;11.054;2023-11-22T13:06:41;3.30;99.90
6110;DHT22;3085;49.444;11.054;2023-11-22T13:09:11;3.80;99.90
6110;DHT22;3085;49.444;11.054;2023-11-22T13:11:41;3.20;99.90
6110;DHT22;3085;49.444;11.054;2023-11-22T13:14:09;3.20;99.90
6110;DHT22;3085;49.444;11.054;2023-11-22T13:16:36;3.30;99.90
6110;DHT22;3085;49.444;11.054;2023-11-22T13:19:04;3.40;99.90
6110;DHT22;3085;49.444;11.054;2023-11-22T13:21:32;3.30;99.90
6110;DHT22;3085;49.444;11.054;2023-11-22T13:24:00;3.20;99.90
6110;DHT22;3085;49.444;11.054;2023-11-22T13:26:26;3.30;99.90
6110;DHT22;3085;49.444;11.054;2023-11-22T13:28:53;3.00;99.90
6110;DHT22;3085;49.444;11.054;2023-11-22T13:31:21;3.00;99.90
6110;DHT22;3085;49.444;11.054;2023-11-22T13:33:48;3.00;99.90
6110;DHT22;3085;49.444;11.054;2023-11-22T13:36:21;3.00;99.90
6110;DHT22;3085;49.444;11.054;2023-11-22T13:38:49;3.10;99.90
6110;DHT22;3085;49.444;11.054;2023-11-22T13:41:17;3.00;99.90
6110;DHT22;3085;49.444;11.054;2023-11-22T13:43:44;3.20;99.90
6110;DHT22;3085;49.444;11.054;2023-11-22T13:46:12;3.20;99.90
6110;DHT22;3085;49.444;11.054;2023-11-22T13:48:43;3.30;99.90
6110;DHT22;3085;49.444;11.054;2023-11-22T13:51:10;3.40;99.90
6110;DHT22;3085;49.444;11.054;2023-11-22T13:53:37;3.10;99.90
6110;DHT22;3085;49.444;11.054;2023-11-22T13:56:09;3.20;99.90
6110;DHT22;3085;49.444;11.054;2023-11-22T13:58:37;3.20;99.90
6110;DHT22;3085;49.444;11.054;2023-11-22T14:01:04;3.30;99.90
6110;DHT22;3085;49.444;11.054;2023-11-22T14:03:35;3.30;99.90
6110;DHT22;3085;49.444;11.054;2023-11-22T14:06:02;3.20;99.90
6110;DHT22;3085;49.444;11.054;2023-11-22T14:08:30;3.00;99.90
6110;DHT22;3085;49.444;11.054;2023-11-22T14:10:57;3.10;99.90
6110;DHT22;3085;49.444;11.054;2023-11-22T14:13:24;4.20;99.90
6110;DHT22;3085;49.444;11.054;2023-11-22T14:15:52;3.10;99.90
6110;DHT22;3085;49.444;11.054;2023-11-22T14:18:19;2.90;99.90
6110;DHT22;3085;49.444;11.054;2023-11-22T14:20:46;3.00;99.90
6110;DHT22;3085;49.444;11.054;2023-11-22T14:23:13;3.00;99.90
6110;DHT22;3085;49.444;11.054;2023-11-22T14:25:39;3.10;99.90
6110;DHT22;3085;49.444;11.054;2023-11-22T14:28:06;3.10;99.90
6110;DHT22;3085;49.444;11.054;2023-11-22T14:30:34;3.00;99.90
6110;DHT22;3085;49.444;11.054;2023-11-22T14:33:03;3.20;99.90
6110;DHT22;3085;49.444;11.054;2023-11-22T14:35:32;3.00;99.90
6110;DHT22;3085;49.444;11.054;2023-11-22T14:37:59;3.00;99.90
6110;DHT22;3085;49.444;11.054;2023-11-22T14:40:26;3.40;99.90
6110;DHT22;3085;49.444;11.054;2023-11-22T14:42:53;3.00;99.90
6110;DHT22;3085;49.444;11.054;2023-11-22T14:45:19;3.00;99.90
6110;DHT22;3085;49.444;11.054;2023-11-22T14:47:46;3.20;99.90
6110;DHT22;3085;49.444;11.054;2023-11-22T14:50:16;3.00;99.90
6110;DHT22;3085;49.444;11.054;2023-11-22T14:52:43;3.20;99.90
6110;DHT22;3085;49.444;11.054;2023-11-22T14:55:10;2.90;99.90
6110;DHT22;3085;49.444;11.054;2023-11-22T14:57:38;2.90;99.90
6110;DHT22;3085;49.444;11.054;2023-11-22T15:00:06;3.00;99.90
6110;DHT22;3085;49.444;11.054;2023-11-22T15:02:35;3.10;99.90
6110;DHT22;3085;49.444;11.054;2023-11-22T15:05:03;3.00;99.90
6110;DHT22;3085;49.444;11.054;2023-11-22T15:07:35;2.90;99.90
6110;DHT22;3085;49.444;11.054;2023-11-22T15:10:07;2.90;99.90
6110;DHT22;3085;49.444;11.054;2023-11-22T15:12:35;3.00;99.90
6110;DHT22;3085;49.444;11.054;2023-11-22T15:15:02;3.00;99.90
6110;DHT22;3085;49.444;11.054;2023-11-22T15:17:29;3.20;99.90
6110;DHT22;3085;49.444;11.054;2023-11-22T15:19:57;3.30;99.90
6110;DHT22;3085;49.444;11.054;2023-11-22T15:22:23;3.20;99.90
6110;DHT22;3085;49.444;11.054;2023-11-22T15:24:53;3.10;99.90
6110;DHT22;3085;49.444;11.054;2023-11-22T15:27:19;3.20;99.90
6110;DHT22;3085;49.444;11.054;2023-11-22T15:29:46;3.10;99.90
6110;DHT22;3085;49.444;11.054;2023-11-22T15:32:13;3.00;99.90
6110;DHT22;3085;49.444;11.054;2023-11-22T15:34:40;3.10;99.90
6110;DHT22;3085;49.444;11.054;2023-11-22T15:37:07;3.10;99.90
6110;DHT22;3085;49.444;11.054;2023-11-22T15:39:36;3.00;99.90
6110;DHT22;3085;49.444;11.054;2023-11-22T15:42:04;3.00;99.90
6110;DHT22;3085;49.444;11.054;2023-11-22T15:44:31;3.00;99.90
6110;DHT22;3085;49.444;11.054;2023-11-22T15:46:59;3.20;99.90
6110;DHT22;3085;49.444;11.054;2023-11-22T15:49:30;3.10;99.90
6110;DHT22;3085;49.444;11.054;2023-11-22T15:51:56;3.10;99.90
6110;DHT22;3085;49.444;11.054;2023-11-22T15:54:23;3.10;99.90
6110;DHT22;3085;49.444;11.054;2023-11-22T15:56:50;3.10;99.90
6110;DHT22;3085;49.444;11.054;2023-11-22T15:59:18;3.10;99.90
6110;DHT22;3085;49.444;11.054;2023-11-22T16:01:45;3.20;99.90
6110;DHT22;3085;49.444;11.054;2023-11-22T16:04:12;3.20;99.90
6110;DHT22;3085;49.444;11.054;2023-11-22T16:06:39;3.20;99.90
6110;DHT22;3085;49.444;11.054;2023-11-22T16:09:05;3.20;99.90